NCAR-RAP Real-Time Weather Data

Output produced by METARs form (17 October 2018  15:57 UTC)
found at http://weather.rap.ucar.edu/surface/
 
RJNW 171000Z 04004KT 9999 FEW030 BKN/// 13/11 Q1015
RJNW 170900Z 05004KT 9999 FEW030 SCT/// 13/10 Q1014
RJNW 170800Z 03004KT 9999 FEW030 15/11 Q1014
RJNW 170700Z 04005KT 350V080 9999 FEW020 SCT030 16/10 Q1013
RJNW 170600Z 04007KT 360V070 9999 FEW020 SCT030 BKN/// 17/11 Q1013
RJNW 170500Z 03007KT 300V070 9999 FEW020 SCT030 17/10 Q1013
RJNW 170400Z 03006KT 350V090 9999 FEW020 SCT030 18/11 Q1012
RJNW 170300Z 04009KT 010V090 9999 FEW020 SCT030 18/11 Q1013
RJNW 170200Z 05008KT 010V090 9999 FEW020 SCT025 BKN030 17/11 Q1013
RJNW 170100Z 07005KT 020V100 9999 FEW015 SCT030 BKN035 17/12 Q1013
RJNW 170000Z 06006KT 030V100 9999 -SHRA FEW020 SCT030 FEW030CB BKN035 16/11 Q1013
RJNW 162300Z 04004KT 9999 FEW020 FEW030CB BKN/// 14/10 Q1013
RJNW 161000Z 35003KT 9999 FEW020 SCT150 BKN/// 14/12 Q1012
RJNW 160900Z 01003KT 9999 FEW020 SCT050 BKN/// 15/12 Q1013
RJNW 160800Z 02001KT 9999 FEW020 SCT050 BKN/// 17/11 Q1013
RJNW 160700Z 02004KT 340V060 9999 FEW020 SCT040 BKN/// 18/12 Q1013
RJNW 160600Z 01005KT 320V060 9999 VCSH FEW020 SCT030 BKN/// 18/11 Q1013
RJNW 160500Z VRB04KT 9999 FEW020 SCT030 20/11 Q1012
RJNW 160400Z 32004KT 230V020 9999 FEW020 SCT030 19/12 Q1013
RJNW 160300Z VRB02KT 9999 FEW020 SCT030 BKN/// 19/12 Q1013
RJNW 160200Z 21006KT 180V270 9999 FEW010 SCT020 BKN/// 19/13 Q1014
RJNW 160100Z 25003KT 180V280 9999 FEW020 BKN/// 17/12 Q1015
RJNW 160000Z 30002KT 9999 FEW020 SCT030 BKN070 16/12 Q1015
RJNW 152300Z 00000KT 9999 FEW020 SCT100 BKN/// 15/14 Q1016
RJNW 151000Z 07002KT 9999 FEW025 SCT140 12/11 Q1017
RJNW 150900Z 04003KT 9999 FEW030 SCT140 15/12 Q1017
RJNW 150800Z 01003KT 9999 FEW030 BKN150 17/11 Q1017
RJNW 150700Z VRB02KT 9999 FEW030 SCT150 BKN170 19/11 Q1017
RJNW 150600Z 08005KT 9999 FEW030 SCT/// 19/11 Q1017
RJNW 150500Z 06002KT 9999 FEW025 SCT035 19/10 Q1016
RJNW 150400Z VRB02KT 9999 FEW025 SCT/// 20/12 Q1017